Atlantic Beach, South Carolina
Current Conditions -  °F | °C
As of 11:53 AM on Friday 28 Nov 2014 (Local Time) from KCRE Reporting Station
Clear Clear  
Wind Chill:   Ceiling: Unl
Heat Index:   Visibility: 10mi
Dew Point: -6°   Wind: 10mph
Humidity: 37%   Direction: 30°NNE
Pressure: 30.34"   Gusts: NA
Location:  33.8371°N, 78.6471°W
Report Text: KCRE 281653Z 03009KT 10SM CLR 08/M06 A3034 RMK AO1 SLP273 T00781061
Loading
Personal Weather Stations






























Interactive Weather Map New forecast layout! Learn more

10-Day Weather Forecast

Advertisements
Track Severe Weather on mobile